createdAt,value
2018-12-31T14:49:16.075Z,40.53
2018-12-31T14:51:44.560Z,35.93
2018-12-31T14:54:13.028Z,33.17
2018-12-31T14:56:41.447Z,36.50
2018-12-31T14:59:09.849Z,31.63
2018-12-31T15:01:38.269Z,34.37
2018-12-31T15:04:06.671Z,91.83
2018-12-31T15:06:35.139Z,34.80
2018-12-31T15:09:04.837Z,34.90
2018-12-31T15:11:33.251Z,34.50
2018-12-31T15:14:01.668Z,34.87
2018-12-31T15:16:30.072Z,34.47
2018-12-31T15:18:58.461Z,44.57
2018-12-31T15:21:26.913Z,46.17
2018-12-31T15:23:55.319Z,54.47
2018-12-31T15:26:24.129Z,45.33
2018-12-31T15:28:52.566Z,47.20
2018-12-31T15:31:20.975Z,52.00
2018-12-31T15:33:49.429Z,49.70
2018-12-31T15:36:17.843Z,45.83
2018-12-31T15:38:46.318Z,50.07
2018-12-31T15:41:14.736Z,47.93
2018-12-31T15:43:43.143Z,48.43
2018-12-31T15:46:11.551Z,47.87
2018-12-31T15:48:39.981Z,51.87
2018-12-31T15:51:09.117Z,54.60
2018-12-31T15:53:39.260Z,56.20
2018-12-31T15:56:07.664Z,52.80
2018-12-31T15:58:36.079Z,51.30
2018-12-31T16:01:04.473Z,51.50
2018-12-31T16:03:32.884Z,49.57
2018-12-31T16:06:01.290Z,54.20
2018-12-31T16:08:29.710Z,52.43
2018-12-31T16:10:58.138Z,51.60
2018-12-31T16:13:26.548Z,54.63
2018-12-31T16:15:54.952Z,50.63
2018-12-31T16:18:23.762Z,51.83
2018-12-31T16:20:52.153Z,54.87
2018-12-31T16:23:20.569Z,57.90
2018-12-31T16:25:48.996Z,50.03
2018-12-31T16:28:17.402Z,53.37
2018-12-31T16:30:46.295Z,59.67
2018-12-31T16:33:14.787Z,55.17
2018-12-31T16:35:43.232Z,59.60
2018-12-31T16:38:11.672Z,54.67
2018-12-31T16:40:40.219Z,55.37
2018-12-31T16:43:08.660Z,52.90
2018-12-31T16:45:37.088Z,62.63
2018-12-31T16:48:05.644Z,60.43
2018-12-31T16:50:34.048Z,60.27
2018-12-31T16:53:02.479Z,60.33
2018-12-31T16:55:30.906Z,68.97
2018-12-31T16:57:59.321Z,66.20
2018-12-31T17:00:27.724Z,62.57
2018-12-31T17:02:56.156Z,81.23
2018-12-31T17:05:24.559Z,62.43
2018-12-31T17:07:53.053Z,58.93
2018-12-31T17:10:21.467Z,60.57
2018-12-31T17:12:49.921Z,62.67
2018-12-31T17:15:18.317Z,58.97
2018-12-31T17:17:46.743Z,65.50
2018-12-31T17:20:15.156Z,64.73
2018-12-31T17:22:43.567Z,54.97
2018-12-31T17:25:12.085Z,58.63
2018-12-31T17:27:40.507Z,52.37
2018-12-31T17:30:09.015Z,55.80
2018-12-31T17:32:37.465Z,57.50
2018-12-31T17:35:06.003Z,49.80
2018-12-31T17:37:34.663Z,50.10
2018-12-31T17:40:03.244Z,59.53
2018-12-31T17:42:31.632Z,64.40
2018-12-31T17:45:00.020Z,55.67
2018-12-31T17:47:28.423Z,63.43
2018-12-31T17:49:57.297Z,75.13
2018-12-31T17:52:25.679Z,59.63
2018-12-31T17:54:54.096Z,54.00
2018-12-31T17:57:22.491Z,55.67
2018-12-31T17:59:50.880Z,52.07
2018-12-31T18:02:19.275Z,51.80
2018-12-31T18:04:47.667Z,46.27
2018-12-31T18:07:16.056Z,47.70
2018-12-31T18:09:44.461Z,55.90
2018-12-31T18:12:12.849Z,52.33
2018-12-31T18:14:41.232Z,46.90
2018-12-31T18:17:10.019Z,51.00
2018-12-31T18:19:38.422Z,50.17
2018-12-31T18:22:06.814Z,61.17
2018-12-31T18:24:35.208Z,54.03
2018-12-31T18:27:03.675Z,50.80
2018-12-31T18:29:32.460Z,62.43
2018-12-31T18:32:00.843Z,62.47
2018-12-31T18:34:29.248Z,51.40
2018-12-31T18:36:57.652Z,51.10
2018-12-31T18:39:26.072Z,52.93
2018-12-31T18:41:54.572Z,51.87
2018-12-31T18:44:22.975Z,53.77
2018-12-31T18:46:51.370Z,52.63
2018-12-31T18:49:19.789Z,59.50
2018-12-31T18:51:49.083Z,51.90
2018-12-31T18:54:17.628Z,57.23
2018-12-31T18:56:46.066Z,55.93
2018-12-31T18:59:14.531Z,68.17
2018-12-31T19:01:42.938Z,64.33
2018-12-31T19:04:11.370Z,67.57
2018-12-31T19:06:39.886Z,59.87
2018-12-31T19:09:08.776Z,58.53
2018-12-31T19:11:37.212Z,56.03
2018-12-31T19:14:05.619Z,58.23
2018-12-31T19:16:34.021Z,56.50
2018-12-31T19:19:02.542Z,55.33
2018-12-31T19:21:31.016Z,55.37
2018-12-31T19:23:59.442Z,53.27
2018-12-31T19:26:27.863Z,49.60
2018-12-31T19:28:56.282Z,47.60
2018-12-31T19:31:24.682Z,50.90
2018-12-31T19:33:53.298Z,43.97
2018-12-31T19:36:21.699Z,43.87
2018-12-31T19:38:50.112Z,44.00
2018-12-31T19:41:19.111Z,45.57
2018-12-31T19:43:47.506Z,41.47
2018-12-31T19:46:15.906Z,43.97
2018-12-31T19:48:44.803Z,43.23
2018-12-31T19:51:13.273Z,41.90
2018-12-31T19:53:41.941Z,41.03
2018-12-31T19:56:10.379Z,35.67
2018-12-31T19:58:38.819Z,37.80
2018-12-31T20:01:07.235Z,34.43
2018-12-31T20:03:35.615Z,37.37
2018-12-31T20:06:06.979Z,30.77
2018-12-31T20:08:35.482Z,33.23
2018-12-31T20:11:03.966Z,29.37
2018-12-31T20:13:33.050Z,32.03
2018-12-31T20:16:01.526Z,29.83
2018-12-31T20:18:29.952Z,30.43
2018-12-31T20:20:58.355Z,30.63
2018-12-31T20:23:26.908Z,27.77
2018-12-31T20:25:55.391Z,27.27
2018-12-31T20:28:24.119Z,26.67
2018-12-31T20:30:52.594Z,30.33
2018-12-31T20:33:21.004Z,29.17
2018-12-31T20:35:49.414Z,28.60
2018-12-31T20:38:17.838Z,27.90
2018-12-31T20:40:47.624Z,30.40
2018-12-31T20:43:16.351Z,30.00
2018-12-31T20:45:44.756Z,29.70
2018-12-31T20:48:13.155Z,30.63
2018-12-31T20:50:41.570Z,33.87
2018-12-31T20:53:09.985Z,25.40
2018-12-31T20:55:38.430Z,28.30
2018-12-31T20:58:06.831Z,30.90
2018-12-31T21:00:35.238Z,27.17
2018-12-31T21:03:03.812Z,29.13
2018-12-31T21:05:32.258Z,30.60
2018-12-31T21:08:00.723Z,26.90
2018-12-31T21:10:29.516Z,28.43
2018-12-31T21:12:57.923Z,31.17
2018-12-31T21:15:26.859Z,36.60
2018-12-31T21:17:55.248Z,37.17
2018-12-31T21:20:23.631Z,33.70
2018-12-31T21:22:52.615Z,37.23
2018-12-31T21:25:23.664Z,32.83
2018-12-31T21:27:52.086Z,34.13
2018-12-31T21:30:22.135Z,36.30
2018-12-31T21:32:50.575Z,34.57
2018-12-31T21:35:18.976Z,37.23
2018-12-31T21:37:47.402Z,37.53
2018-12-31T21:40:15.899Z,37.67
2018-12-31T21:42:44.317Z,36.50
2018-12-31T21:45:12.711Z,38.97
2018-12-31T21:47:41.110Z,38.40
2018-12-31T21:50:10.008Z,43.33
2018-12-31T21:52:38.526Z,43.90
2018-12-31T21:55:07.011Z,43.43
2018-12-31T21:57:35.500Z,47.37
2018-12-31T22:00:05.940Z,44.10
2018-12-31T22:02:34.353Z,42.27
2018-12-31T22:05:02.794Z,43.07
2018-12-31T22:07:34.084Z,44.77
2018-12-31T22:10:02.558Z,41.20
2018-12-31T22:12:32.306Z,40.77
2018-12-31T22:15:02.238Z,36.77
2018-12-31T22:17:30.636Z,37.67
2018-12-31T22:19:59.064Z,35.30
2018-12-31T22:22:27.504Z,37.63
2018-12-31T22:24:55.904Z,40.20
2018-12-31T22:27:24.342Z,36.47
2018-12-31T22:29:53.140Z,38.90
2018-12-31T22:32:21.547Z,34.33
2018-12-31T22:34:50.008Z,39.40
2018-12-31T22:37:18.411Z,36.63
2018-12-31T22:39:47.042Z,42.03
2018-12-31T22:42:15.838Z,40.13
2018-12-31T22:44:44.248Z,38.63
2018-12-31T22:47:12.719Z,38.20
2018-12-31T22:49:41.147Z,39.40
2018-12-31T22:52:09.571Z,43.90
2018-12-31T22:54:37.973Z,42.40
2018-12-31T22:57:06.367Z,59.77
2018-12-31T22:59:34.760Z,57.83
2018-12-31T23:02:03.318Z,75.13
2018-12-31T23:04:32.389Z,58.63
2018-12-31T23:07:01.537Z,90.80
2018-12-31T23:09:29.938Z,211.43
2018-12-31T23:11:58.380Z,204.00
2018-12-31T23:14:26.792Z,229.93
2018-12-31T23:16:56.316Z,214.60
2018-12-31T23:19:24.779Z,272.73
2018-12-31T23:21:53.256Z,284.23
2018-12-31T23:24:21.664Z,290.03
2018-12-31T23:26:51.632Z,282.17
2018-12-31T23:29:20.042Z,298.73
2018-12-31T23:31:48.436Z,262.90
2018-12-31T23:34:16.880Z,294.70
2018-12-31T23:36:45.281Z,262.80
2018-12-31T23:39:13.694Z,322.53
2018-12-31T23:41:42.114Z,242.10
2018-12-31T23:44:10.589Z,266.57
2018-12-31T23:46:38.988Z,230.30
2018-12-31T23:49:07.393Z,245.13
2018-12-31T23:51:35.795Z,220.00
2018-12-31T23:54:04.191Z,196.30
2018-12-31T23:56:32.583Z,236.30
2018-12-31T23:59:00.996Z,203.97
